createdAt,value
2019-01-16T00:04:02.220Z,9.33
2019-01-16T00:09:29.494Z,9.17
2019-01-16T00:14:55.526Z,9.80
2019-01-16T00:20:26.395Z,4.57
2019-01-16T00:25:57.635Z,7.97
2019-01-16T00:31:28.411Z,11.13
2019-01-16T00:36:59.043Z,9.87
2019-01-16T00:42:29.743Z,9.87
2019-01-16T00:48:02.959Z,10.80
2019-01-16T00:53:36.652Z,8.93
2019-01-16T00:59:07.398Z,11.20
2019-01-16T01:04:38.269Z,11.40
2019-01-16T01:10:02.858Z,11.63
2019-01-16T01:15:28.411Z,9.80
2019-01-16T01:20:59.471Z,11.73
2019-01-16T01:26:30.016Z,5.87
2019-01-16T01:31:58.109Z,8.60
2019-01-16T01:37:28.569Z,8.87
2019-01-16T01:43:05.375Z,14.10
2019-01-16T01:48:26.599Z,11.60
2019-01-16T01:53:50.081Z,13.87
2019-01-16T01:59:26.764Z,12.90
2019-01-16T02:04:55.803Z,10.10
2019-01-16T02:10:22.825Z,11.27
2019-01-16T02:15:53.640Z,11.57
2019-01-16T02:21:24.375Z,7.53
2019-01-16T02:26:47.030Z,13.87
2019-01-16T02:32:17.418Z,7.17
2019-01-16T02:37:48.276Z,11.57
2019-01-16T02:43:13.471Z,11.00
2019-01-16T02:48:31.353Z,12.87
2019-01-16T02:54:05.209Z,12.80
2019-01-16T02:59:36.190Z,10.40
2019-01-16T03:05:03.401Z,12.10
2019-01-16T03:10:33.636Z,7.47
2019-01-16T03:16:10.836Z,11.77
2019-01-16T03:21:41.488Z,12.73
2019-01-16T03:27:12.212Z,10.97
2019-01-16T03:32:42.988Z,12.30
2019-01-16T03:38:19.179Z,12.17
2019-01-16T03:43:47.260Z,10.60
2019-01-16T03:49:13.800Z,12.87
2019-01-16T03:55:02.567Z,11.10
2019-01-16T04:00:40.543Z,12.17
2019-01-16T04:06:12.664Z,13.23
2019-01-16T04:11:43.359Z,6.53
2019-01-16T04:17:02.173Z,9.63
2019-01-16T04:22:40.139Z,13.67
2019-01-16T04:28:10.932Z,9.73
2019-01-16T04:33:41.611Z,9.90
2019-01-16T04:39:08.007Z,14.57
2019-01-16T04:44:38.932Z,11.40
2019-01-16T04:50:09.640Z,10.50
2019-01-16T04:55:46.338Z,12.77
2019-01-16T05:01:16.879Z,13.20
2019-01-16T05:06:53.607Z,13.40
2019-01-16T05:12:24.549Z,8.20
2019-01-16T05:17:55.284Z,14.57
2019-01-16T05:23:31.811Z,13.30
2019-01-16T05:29:05.955Z,12.47
2019-01-16T05:34:37.089Z,13.20
2019-01-16T05:40:02.912Z,13.60
2019-01-16T05:45:33.887Z,14.20
2019-01-16T05:50:57.151Z,14.57
2019-01-16T05:56:27.924Z,14.80
2019-01-16T06:01:58.371Z,15.23
2019-01-16T06:07:19.008Z,15.77
2019-01-16T06:12:49.728Z,15.87
2019-01-16T06:18:17.205Z,11.40
2019-01-16T06:23:50.898Z,16.60
2019-01-16T06:29:21.756Z,14.93
2019-01-16T06:34:43.856Z,13.67
2019-01-16T06:40:15.019Z,8.97
2019-01-16T06:45:33.759Z,13.07
2019-01-16T06:51:11.733Z,11.67
2019-01-16T06:56:33.148Z,14.57
2019-01-16T07:02:04.136Z,18.40
2019-01-16T07:07:27.783Z,14.47
2019-01-16T07:12:57.178Z,16.90
2019-01-16T07:18:27.844Z,15.33
2019-01-16T07:23:58.607Z,13.00
2019-01-16T07:29:26.392Z,16.80
2019-01-16T07:34:58.815Z,14.57
2019-01-16T07:40:33.023Z,10.80
2019-01-16T07:46:03.605Z,16.70
2019-01-16T07:51:29.725Z,15.47
2019-01-16T07:57:00.106Z,16.73
2019-01-16T08:02:31.087Z,16.80
2019-01-16T08:08:01.839Z,16.03
2019-01-16T08:13:35.885Z,14.13
2019-01-16T08:19:03.183Z,17.00
2019-01-16T08:24:30.071Z,15.47
2019-01-16T08:29:49.976Z,15.40
2019-01-16T08:35:21.083Z,11.70
2019-01-16T08:40:51.654Z,11.37
2019-01-16T08:46:22.543Z,13.97
2019-01-16T08:51:52.984Z,15.37
2019-01-16T08:57:23.475Z,15.73
2019-01-16T09:02:45.879Z,10.90
2019-01-16T09:08:16.664Z,8.27
2019-01-16T09:13:47.691Z,13.97
2019-01-16T09:19:18.359Z,14.90
2019-01-16T09:24:49.159Z,12.00
2019-01-16T09:30:20.000Z,11.40
2019-01-16T09:35:51.307Z,12.00
2019-01-16T09:41:22.425Z,12.03
2019-01-16T09:46:41.522Z,11.13
2019-01-16T09:52:12.775Z,9.10
2019-01-16T09:57:43.209Z,14.57
2019-01-16T10:03:15.371Z,11.30
2019-01-16T10:08:44.443Z,10.10
2019-01-16T10:14:22.433Z,10.70
2019-01-16T10:19:53.136Z,10.77
2019-01-16T10:25:11.471Z,11.33
2019-01-16T10:30:34.706Z,8.30
2019-01-16T10:36:06.000Z,5.90
2019-01-16T10:41:36.887Z,10.20
2019-01-16T10:47:07.323Z,7.67
2019-01-16T10:52:34.775Z,6.70
2019-01-16T10:58:05.555Z,10.47
2019-01-16T11:03:36.345Z,9.00
2019-01-16T11:09:07.600Z,9.73
2019-01-16T11:14:38.636Z,7.27
2019-01-16T11:20:09.572Z,7.03
2019-01-16T11:25:37.059Z,6.43
2019-01-16T11:31:13.375Z,9.20
2019-01-16T11:36:44.424Z,7.90
2019-01-16T11:42:15.319Z,7.20
2019-01-16T11:47:41.056Z,7.77
2019-01-16T11:53:12.286Z,8.47
2019-01-16T11:58:45.419Z,6.17
2019-01-16T12:04:13.343Z,8.07
2019-01-16T12:09:43.648Z,8.40
2019-01-16T12:15:14.564Z,9.10
2019-01-16T12:20:39.419Z,6.60
2019-01-16T12:26:09.852Z,9.00
2019-01-16T12:31:35.453Z,7.07
2019-01-16T12:37:06.155Z,4.17
2019-01-16T12:42:37.282Z,9.57
2019-01-16T12:48:08.137Z,7.50
2019-01-16T12:53:39.387Z,5.77
2019-01-16T12:59:01.968Z,7.60
2019-01-16T13:04:32.506Z,6.40
2019-01-16T13:10:03.632Z,7.30
2019-01-16T13:15:34.879Z,4.50
2019-01-16T13:21:12.035Z,6.40
2019-01-16T13:26:43.071Z,4.10
2019-01-16T13:32:13.521Z,5.50
2019-01-16T13:37:40.519Z,4.93
2019-01-16T13:43:10.915Z,3.50
2019-01-16T13:48:52.765Z,4.03
2019-01-16T13:54:27.876Z,4.03
2019-01-16T13:59:55.351Z,3.73
2019-01-16T14:05:26.555Z,5.57
2019-01-16T14:10:45.881Z,7.93
2019-01-16T14:16:16.423Z,7.87
2019-01-16T14:21:36.235Z,6.90
2019-01-16T14:27:07.185Z,6.77
2019-01-16T14:32:38.029Z,6.30
2019-01-16T14:38:11.879Z,7.43
2019-01-16T14:43:48.799Z,7.30
2019-01-16T14:49:19.395Z,7.20
2019-01-16T14:54:50.181Z,9.23
2019-01-16T15:00:26.856Z,8.07
2019-01-16T15:06:04.059Z,10.53
2019-01-16T15:11:34.790Z,5.30
2019-01-16T15:17:06.027Z,7.33
2019-01-16T15:22:36.629Z,11.27
2019-01-16T15:27:57.571Z,7.10
2019-01-16T15:33:31.447Z,10.97
2019-01-16T15:39:01.924Z,8.57
2019-01-16T15:44:34.733Z,9.20
2019-01-16T15:50:05.564Z,9.70
2019-01-16T15:55:34.040Z,6.13
2019-01-16T16:01:03.037Z,7.90
2019-01-16T16:06:40.447Z,9.07
2019-01-16T16:12:11.196Z,9.10
2019-01-16T16:17:41.603Z,10.67
2019-01-16T16:23:18.390Z,9.20
2019-01-16T16:28:43.091Z,9.70
2019-01-16T16:34:01.287Z,10.30
2019-01-16T16:39:32.244Z,9.10
2019-01-16T16:45:03.172Z,6.90
2019-01-16T16:50:36.416Z,10.43
2019-01-16T16:56:04.850Z,9.00
2019-01-16T17:01:31.695Z,7.57
2019-01-16T17:07:05.386Z,8.50
2019-01-16T17:12:28.091Z,9.07
2019-01-16T17:17:49.762Z,9.00
2019-01-16T17:23:20.983Z,7.97
2019-01-16T17:28:51.931Z,8.80
2019-01-16T17:34:12.176Z,5.23
2019-01-16T17:39:43.366Z,5.63
2019-01-16T17:45:14.264Z,8.43
2019-01-16T17:50:47.709Z,6.30
2019-01-16T17:56:18.135Z,7.00
2019-01-16T18:01:49.379Z,7.93
2019-01-16T18:07:19.940Z,9.23
2019-01-16T18:12:42.761Z,9.30
2019-01-16T18:18:19.863Z,6.73
2019-01-16T18:23:50.915Z,9.30
2019-01-16T18:29:17.051Z,7.97
2019-01-16T18:34:47.609Z,6.07
2019-01-16T18:40:18.724Z,9.30
2019-01-16T18:45:45.118Z,9.53
2019-01-16T18:51:16.101Z,10.83
2019-01-16T18:56:47.037Z,9.63
2019-01-16T19:02:14.020Z,8.70
2019-01-16T19:07:45.303Z,10.20
2019-01-16T19:13:15.897Z,9.37
2019-01-16T19:18:46.547Z,9.57
2019-01-16T19:24:17.092Z,11.27
2019-01-16T19:29:50.902Z,9.10
2019-01-16T19:35:27.919Z,12.10
2019-01-16T19:41:04.998Z,11.40
2019-01-16T19:46:35.439Z,11.23
2019-01-16T19:52:06.063Z,13.83
2019-01-16T19:57:36.809Z,11.17
2019-01-16T20:03:08.304Z,9.63
2019-01-16T20:08:31.008Z,12.80
2019-01-16T20:14:01.420Z,10.57
2019-01-16T20:19:26.167Z,9.90
2019-01-16T20:24:52.181Z,11.33
2019-01-16T20:30:22.864Z,12.33
2019-01-16T20:35:45.983Z,12.43
2019-01-16T20:41:19.792Z,10.07
2019-01-16T20:46:47.911Z,12.50
2019-01-16T20:52:18.801Z,8.70
2019-01-16T21:03:19.031Z,11.97
2019-01-16T21:08:47.349Z,8.77
2019-01-16T21:14:18.323Z,9.57
2019-01-16T21:19:43.827Z,9.60
2019-01-16T21:25:16.246Z,10.30
2019-01-16T21:31:05.860Z,9.20
2019-01-16T21:36:30.831Z,9.77
2019-01-16T21:42:00.360Z,9.50
2019-01-16T21:47:36.505Z,10.27
2019-01-16T21:52:54.074Z,8.83
2019-01-16T21:58:28.296Z,5.50
2019-01-16T22:03:48.019Z,6.60
2019-01-16T22:09:15.119Z,7.67
2019-01-16T22:14:52.603Z,8.67
2019-01-16T22:20:16.475Z,6.87
2019-01-16T22:25:47.603Z,8.87
2019-01-16T22:31:18.727Z,9.67
2019-01-16T22:36:41.519Z,7.60
2019-01-16T22:42:12.148Z,9.00
2019-01-16T22:47:32.359Z,5.93
2019-01-16T22:53:06.387Z,7.90
2019-01-16T22:58:22.916Z,8.00
2019-01-16T23:03:53.744Z,5.57
2019-01-16T23:09:24.237Z,8.10
2019-01-16T23:14:42.975Z,8.70
2019-01-16T23:20:21.256Z,7.90
2019-01-16T23:25:52.100Z,6.00
2019-01-16T23:31:25.914Z,8.03
2019-01-16T23:36:56.787Z,7.37
2019-01-16T23:42:27.650Z,8.40
2019-01-16T23:47:48.747Z,7.70
2019-01-16T23:53:19.353Z,10.80
2019-01-16T23:58:50.155Z,8.70
